Time;durP1;ratioP1;P1;durP2;ratioP2;P2;SDS_P1;SDS_P2;PMS_P1;PMS_P2;Temp;Humidity;BMP_temperature;BMP_pressure;BME280_temperature;BME280_humidity;BME280_pressure;Samples;Min_cycle;Max_cycle;Signal;HPM_P1;HPM_P2
2022/09/24 00:01:11;;;;;;;13.48;12.27;;;12.60;99.90;;;;;;6236974;22;20223;-79
2022/09/24 00:03:41;;;;;;;12.68;11.68;;;12.50;99.90;;;;;;6236285;22;20220;-79
2022/09/24 00:06:09;;;;;;;12.70;11.60;;;12.40;99.90;;;;;;6236492;22;20199;-79
2022/09/24 00:08:36;;;;;;;11.68;10.68;;;12.40;99.90;;;;;;6236916;22;20189;-79
2022/09/24 00:11:06;;;;;;;12.50;11.40;;;12.40;99.90;;;;;;6234632;22;20252;-79
2022/09/24 00:13:33;;;;;;;12.70;11.70;;;12.30;99.90;;;;;;6244507;22;20192;-79
2022/09/24 00:16:03;;;;;;;12.98;11.77;;;12.20;99.90;;;;;;6239613;22;20263;-80
2022/09/24 00:18:30;;;;;;;11.70;10.80;;;12.20;99.90;;;;;;6237881;22;20189;-79
2022/09/24 00:20:59;;;;;;;12.20;11.05;;;12.10;99.90;;;;;;6254164;22;20295;-79
2022/09/24 00:23:26;;;;;;;11.75;10.95;;;12.10;99.90;;;;;;6230105;23;20253;-79
2022/09/24 00:28:38;;;;;;;11.98;10.98;;;12.00;99.90;;;;;;6242272;22;20220;-79
2022/09/24 00:31:07;;;;;;;11.60;10.60;;;12.00;99.90;;;;;;6242798;22;20635;-79
2022/09/24 00:33:34;;;;;;;11.88;10.95;;;11.90;99.90;;;;;;6247691;22;20211;-79
2022/09/24 00:36:05;;;;;;;12.65;11.40;;;11.80;99.90;;;;;;6247733;22;20220;-79
2022/09/24 00:38:32;;;;;;;12.73;11.82;;;11.80;99.90;;;;;;6235544;22;20189;-79
2022/09/24 00:41:00;;;;;;;12.52;11.43;;;11.80;99.90;;;;;;6224790;22;20233;-79
2022/09/24 00:43:28;;;;;;;12.73;11.60;;;11.80;99.90;;;;;;6225850;22;20204;-80
2022/09/24 00:46:03;;;;;;;13.43;12.10;;;11.80;99.90;;;;;;6223867;22;20196;-79
2022/09/24 00:48:33;;;;;;;13.00;11.85;;;11.90;99.90;;;;;;6211417;23;20279;-79
2022/09/24 00:51:00;;;;;;;13.27;12.00;;;11.90;99.90;;;;;;6236766;22;20697;-79
2022/09/24 00:53:32;;;;;;;13.30;12.30;;;11.80;99.90;;;;;;6242972;22;20233;-79
2022/09/24 00:56:01;;;;;;;13.55;12.35;;;11.80;99.90;;;;;;6244309;22;20215;-79
2022/09/24 00:58:31;;;;;;;13.57;12.27;;;11.80;99.90;;;;;;6210632;23;20216;-78
2022/09/24 01:01:03;;;;;;;14.10;12.75;;;11.80;99.90;;;;;;6231502;22;20201;-78
2022/09/24 01:03:33;;;;;;;15.57;14.27;;;11.80;99.90;;;;;;6235977;22;20201;-78
2022/09/24 01:06:00;;;;;;;14.30;13.10;;;11.80;99.90;;;;;;6235499;22;20264;-79
2022/09/24 01:08:28;;;;;;;14.27;13.07;;;11.70;99.90;;;;;;6237332;22;20548;-79
2022/09/24 01:11:10;;;;;;;15.27;13.90;;;11.70;99.90;;;;;;6236409;22;20415;-78
2022/09/24 01:13:54;;;;;;;15.23;13.93;;;11.80;99.90;;;;;;6243623;22;20245;-78
2022/09/24 01:16:28;;;;;;;15.60;14.40;;;11.80;99.90;;;;;;6242073;22;20234;-79
2022/09/24 01:19:09;;;;;;;15.95;14.70;;;11.80;99.90;;;;;;6229582;22;20188;-77
2022/09/24 01:21:42;;;;;;;14.60;13.50;;;11.80;99.90;;;;;;6235063;22;20305;-79
2022/09/24 01:24:25;;;;;;;14.50;13.00;;;11.80;99.90;;;;;;6235926;22;20223;-79
2022/09/24 01:27:01;;;;;;;16.33;14.93;;;11.90;99.90;;;;;;6247231;22;20216;-78
2022/09/24 01:29:58;;;;;;;14.60;13.35;;;11.90;99.90;;;;;;6248341;22;20211;-79
2022/09/24 01:32:32;;;;;;;14.30;13.10;;;11.90;99.90;;;;;;6238097;22;20247;-79
2022/09/24 01:35:03;;;;;;;14.88;13.73;;;11.80;99.90;;;;;;6233400;22;20201;-79
2022/09/24 01:37:34;;;;;;;16.77;15.15;;;11.80;99.90;;;;;;6230713;22;20275;-79
2022/09/24 01:40:03;;;;;;;15.10;13.80;;;11.90;99.90;;;;;;6237663;22;20221;-78
2022/09/24 01:42:31;;;;;;;15.57;14.05;;;11.80;99.90;;;;;;6237385;22;20244;-78
2022/09/24 01:45:01;;;;;;;15.63;14.30;;;11.90;99.90;;;;;;6236201;22;21078;-78
2022/09/24 01:47:34;;;;;;;15.43;14.13;;;11.90;99.90;;;;;;6225567;23;20538;-78
2022/09/24 01:50:02;;;;;;;15.27;14.07;;;11.90;99.90;;;;;;6241167;22;20253;-78
2022/09/24 01:52:34;;;;;;;15.43;14.00;;;11.90;99.90;;;;;;6240159;22;20260;-78
2022/09/24 01:55:02;;;;;;;15.90;14.50;;;11.80;99.90;;;;;;6234657;22;20280;-79
2022/09/24 01:57:35;;;;;;;15.73;14.43;;;11.70;99.90;;;;;;6238025;22;20193;-79
2022/09/24 02:00:05;;;;;;;16.55;15.15;;;11.70;99.90;;;;;;6241599;22;20212;-78
2022/09/24 02:02:39;;;;;;;15.38;14.00;;;11.70;99.90;;;;;;6239167;22;20202;-79
2022/09/24 02:05:12;;;;;;;16.08;14.77;;;11.70;99.90;;;;;;6237347;22;20279;-79
2022/09/24 02:07:45;;;;;;;15.75;14.55;;;11.60;99.90;;;;;;6226852;22;20238;-79
2022/09/24 02:10:15;;;;;;;16.33;14.93;;;11.60;99.90;;;;;;6242243;22;20259;-78
2022/09/24 02:12:44;;;;;;;15.15;13.95;;;11.60;99.90;;;;;;6236232;22;20233;-78
2022/09/24 02:15:14;;;;;;;15.50;14.30;;;11.60;99.90;;;;;;6238396;22;20648;-78
2022/09/24 02:17:46;;;;;;;15.23;14.05;;;11.60;99.90;;;;;;6236897;23;20630;-78
2022/09/24 02:20:19;;;;;;;15.48;14.20;;;11.60;99.90;;;;;;6238750;22;20264;-78
2022/09/24 02:22:49;;;;;;;15.65;14.38;;;11.60;99.90;;;;;;6240849;22;20588;-79
2022/09/24 02:25:20;;;;;;;14.73;13.63;;;11.70;99.90;;;;;;6234722;22;20189;-78
2022/09/24 02:27:48;;;;;;;16.30;14.75;;;11.70;99.90;;;;;;6236194;22;20235;-78
2022/09/24 02:30:16;;;;;;;15.48;14.27;;;11.60;99.90;;;;;;6237342;22;20236;-79
2022/09/24 02:32:44;;;;;;;15.30;14.00;;;11.70;99.90;;;;;;6250191;22;20285;-79
2022/09/24 02:35:12;;;;;;;15.82;14.52;;;11.70;99.90;;;;;;6220864;23;20271;-78
2022/09/24 02:37:41;;;;;;;14.43;13.32;;;11.60;99.90;;;;;;6238850;22;20707;-79
2022/09/24 02:40:11;;;;;;;15.93;14.63;;;11.60;99.90;;;;;;6236557;22;20279;-78
2022/09/24 02:42:39;;;;;;;14.95;13.60;;;11.60;99.90;;;;;;6239305;22;20187;-78
2022/09/24 02:45:07;;;;;;;16.17;14.88;;;11.60;99.90;;;;;;6241143;22;20189;-79
2022/09/24 02:47:34;;;;;;;16.30;14.90;;;11.60;99.90;;;;;;6249090;22;20231;-79
2022/09/24 02:50:03;;;;;;;15.43;13.95;;;11.60;99.90;;;;;;6227837;23;20222;-79
2022/09/24 02:52:30;;;;;;;15.70;14.40;;;11.60;99.90;;;;;;6235185;22;20228;-78
2022/09/24 02:54:57;;;;;;;17.35;15.77;;;11.60;99.90;;;;;;6237771;22;20592;-78
2022/09/24 02:57:24;;;;;;;15.70;14.30;;;11.50;99.90;;;;;;6235488;22;20221;-78
2022/09/24 02:59:51;;;;;;;16.30;15.00;;;11.50;99.90;;;;;;6238434;22;20295;-77
2022/09/24 03:02:18;;;;;;;17.05;15.25;;;11.50;99.90;;;;;;6237612;22;20279;-79
2022/09/24 03:04:45;;;;;;;15.00;13.80;;;11.40;99.90;;;;;;6237191;22;20208;-78
2022/09/24 03:07:14;;;;;;;16.00;13.93;;;11.50;99.90;;;;;;6236442;22;20192;-78
2022/09/24 03:09:41;;;;;;;16.73;15.23;;;11.40;99.90;;;;;;6238706;23;20216;-78
2022/09/24 03:12:08;;;;;;;15.07;13.88;;;11.40;99.90;;;;;;6237229;22;20303;-78
2022/09/24 03:14:35;;;;;;;15.43;14.02;;;11.40;99.90;;;;;;6249056;22;20188;-79
2022/09/24 03:17:02;;;;;;;15.60;14.30;;;11.40;99.90;;;;;;6242245;22;20184;-78
2022/09/24 03:19:29;;;;;;;15.50;14.20;;;11.40;99.90;;;;;;6235228;22;20216;-78
2022/09/24 03:21:56;;;;;;;15.07;13.85;;;11.40;99.90;;;;;;6247817;22;20189;-79
2022/09/24 03:24:24;;;;;;;15.40;14.30;;;11.40;99.90;;;;;;6244963;22;20268;-79
2022/09/24 03:26:51;;;;;;;15.40;13.90;;;11.40;99.90;;;;;;6236703;23;20216;-78
2022/09/24 03:30:58;;;;;;;13.95;12.70;;;11.40;99.90;;;;;;6234162;22;20295;-78
2022/09/24 03:32:06;;;;;;;13.23;12.23;;;11.40;99.90;;;;;;6242212;22;20281;-78
2022/09/24 03:34:32;;;;;;;13.97;12.73;;;11.30;99.90;;;;;;6236054;22;20624;-78
2022/09/24 03:37:00;;;;;;;13.70;12.35;;;11.30;99.90;;;;;;6264434;22;20811;-79
2022/09/24 03:39:28;;;;;;;15.20;12.52;;;11.30;99.90;;;;;;6225164;22;20212;-78
2022/09/24 03:41:55;;;;;;;12.50;11.50;;;11.30;99.90;;;;;;6236848;22;20212;-79
2022/09/24 03:44:22;;;;;;;13.68;12.50;;;11.30;99.90;;;;;;6240345;22;20625;-79
2022/09/24 03:46:49;;;;;;;11.45;10.52;;;11.30;99.90;;;;;;6244885;22;20237;-79
2022/09/24 03:49:17;;;;;;;12.30;11.10;;;11.30;99.90;;;;;;6236290;22;20208;-79
2022/09/24 03:51:44;;;;;;;10.52;9.82;;;11.30;99.90;;;;;;6236356;23;20690;-79
2022/09/24 03:54:11;;;;;;;12.68;11.68;;;11.30;99.90;;;;;;6260889;22;20188;-78
2022/09/24 03:56:40;;;;;;;11.55;10.65;;;11.40;99.90;;;;;;6261861;22;20268;-78
2022/09/24 03:59:06;;;;;;;11.85;10.85;;;11.40;99.90;;;;;;6221519;22;20280;-79
2022/09/24 04:01:36;;;;;;;11.88;10.88;;;11.30;99.90;;;;;;6236729;22;20272;-78
2022/09/24 04:04:03;;;;;;;12.65;11.75;;;11.30;99.90;;;;;;6237270;22;20193;-78
2022/09/24 04:06:30;;;;;;;12.40;11.40;;;11.30;99.90;;;;;;6239549;23;20184;-78
2022/09/24 04:08:59;;;;;;;13.80;12.70;;;11.30;99.90;;;;;;6247069;22;20231;-78
2022/09/24 04:11:26;;;;;;;12.50;11.50;;;11.30;99.90;;;;;;6259533;22;20284;-79
2022/09/24 04:13:55;;;;;;;12.10;10.90;;;11.30;99.90;;;;;;6253658;22;20543;-78
2022/09/24 04:16:22;;;;;;;11.27;10.38;;;11.30;99.90;;;;;;6251612;22;20203;-79
2022/09/24 04:18:49;;;;;;;13.20;11.90;;;11.30;99.90;;;;;;6243879;22;20204;-79
2022/09/24 04:21:17;;;;;;;12.75;11.70;;;11.30;99.90;;;;;;6243414;22;20189;-78
2022/09/24 04:23:44;;;;;;;11.80;10.80;;;11.30;99.90;;;;;;6235227;22;20655;-78
2022/09/24 04:26:11;;;;;;;12.75;11.75;;;11.40;99.90;;;;;;6256177;22;20258;-79
2022/09/24 04:28:38;;;;;;;11.95;10.90;;;11.30;99.90;;;;;;6241503;22;20210;-78
2022/09/24 04:31:06;;;;;;;12.40;11.30;;;11.40;99.90;;;;;;6253173;22;20211;-79
2022/09/24 04:33:33;;;;;;;13.27;12.07;;;11.30;99.90;;;;;;6256557;22;20283;-79
2022/09/24 04:36:01;;;;;;;11.75;10.75;;;11.30;99.90;;;;;;6231286;22;20185;-79
2022/09/24 04:38:28;;;;;;;12.95;11.85;;;11.30;99.90;;;;;;6236334;22;20189;-78
2022/09/24 04:40:55;;;;;;;11.85;10.95;;;11.30;99.90;;;;;;6227150;22;20313;-78
2022/09/24 04:43:22;;;;;;;11.75;10.68;;;11.30;99.90;;;;;;6228465;22;20185;-79
2022/09/24 04:45:50;;;;;;;11.52;10.60;;;11.30;99.90;;;;;;6238576;22;20188;-79
2022/09/24 04:48:19;;;;;;;11.90;11.00;;;11.20;99.90;;;;;;6238507;22;20212;-78
2022/09/24 04:50:46;;;;;;;12.40;11.40;;;11.20;99.90;;;;;;6239376;23;20263;-78
2022/09/24 04:53:13;;;;;;;13.30;12.30;;;11.10;99.90;;;;;;6238209;22;20903;-79
2022/09/24 04:55:40;;;;;;;14.68;13.27;;;11.00;99.90;;;;;;6236561;22;20674;-79
2022/09/24 04:58:08;;;;;;;13.65;12.55;;;11.10;99.90;;;;;;6267152;22;20287;-79
2022/09/24 05:00:35;;;;;;;13.35;12.25;;;11.10;99.90;;;;;;6238924;22;20208;-78
2022/09/24 05:03:03;;;;;;;14.43;13.18;;;11.10;99.90;;;;;;6250069;22;20227;-78
2022/09/24 05:05:32;;;;;;;15.77;14.38;;;11.10;99.90;;;;;;6233503;22;20551;-78
2022/09/24 05:08:00;;;;;;;14.52;13.23;;;11.10;99.90;;;;;;6235311;22;20192;-79
2022/09/24 05:10:27;;;;;;;14.27;13.15;;;11.10;99.90;;;;;;6243130;22;20690;-80
2022/09/24 05:12:54;;;;;;;15.70;14.30;;;11.10;99.90;;;;;;6238724;23;20222;-79
2022/09/24 05:15:22;;;;;;;14.40;13.10;;;11.10;99.90;;;;;;6237797;22;20196;-79
2022/09/24 05:17:49;;;;;;;13.95;12.80;;;11.20;99.90;;;;;;6243122;22;20597;-79
2022/09/24 05:20:16;;;;;;;14.65;13.35;;;11.20;99.90;;;;;;6235785;22;20235;-79
2022/09/24 05:22:46;;;;;;;15.05;13.73;;;11.20;99.90;;;;;;6233649;22;20631;-78
2022/09/24 05:25:15;;;;;;;15.65;14.25;;;11.30;99.90;;;;;;6235727;22;20195;-78
2022/09/24 05:27:44;;;;;;;14.80;13.60;;;11.30;99.90;;;;;;6236867;22;20193;-79
2022/09/24 05:30:13;;;;;;;14.88;13.52;;;11.20;99.90;;;;;;6236997;22;20255;-80
2022/09/24 05:32:40;;;;;;;14.43;13.23;;;11.30;99.90;;;;;;6237178;22;20243;-79
2022/09/24 05:35:08;;;;;;;12.73;11.68;;;11.30;99.90;;;;;;6239066;22;20640;-80
2022/09/24 05:37:37;;;;;;;13.85;12.75;;;11.30;99.90;;;;;;6235315;22;20191;-79
2022/09/24 05:42:48;;;;;;;15.45;14.05;;;11.30;99.90;;;;;;6215764;22;20634;-80
2022/09/24 05:45:16;;;;;;;15.63;14.13;;;11.20;99.90;;;;;;6222479;22;20208;-85
2022/09/24 05:47:44;;;;;;;15.43;14.23;;;11.20;99.90;;;;;;6228196;22;20256;-80
2022/09/24 05:50:12;;;;;;;14.70;13.40;;;11.20;99.90;;;;;;6230344;22;20227;-80
2022/09/24 05:52:40;;;;;;;13.25;12.30;;;11.20;99.90;;;;;;6235226;22;20233;-78
2022/09/24 05:55:10;;;;;;;13.98;12.75;;;11.20;99.90;;;;;;6238888;22;20181;-78
2022/09/24 05:57:38;;;;;;;14.13;13.02;;;11.20;99.90;;;;;;6235896;22;20249;-81
2022/09/24 06:00:07;;;;;;;13.57;12.35;;;11.30;99.90;;;;;;6231788;22;20209;-80
2022/09/24 06:02:34;;;;;;;13.20;12.00;;;11.20;99.90;;;;;;6231981;22;20620;-78
2022/09/24 06:05:01;;;;;;;13.45;12.35;;;11.20;99.90;;;;;;6219559;22;20599;-79
2022/09/24 06:07:28;;;;;;;13.07;11.85;;;11.20;99.90;;;;;;6231840;23;20279;-78
2022/09/24 06:09:58;;;;;;;13.15;11.98;;;11.20;99.90;;;;;;6229613;22;20201;-79
2022/09/24 06:12:26;;;;;;;13.32;12.13;;;11.20;99.90;;;;;;6209772;23;20290;-80
2022/09/24 06:14:53;;;;;;;14.00;12.90;;;11.30;99.90;;;;;;6233915;22;20639;-79
2022/09/24 06:17:21;;;;;;;13.60;12.50;;;11.40;99.90;;;;;;6245516;22;20206;-79
2022/09/24 06:19:48;;;;;;;13.48;12.27;;;11.40;99.90;;;;;;6238702;23;20284;-79
2022/09/24 06:22:15;;;;;;;13.52;12.18;;;11.40;99.90;;;;;;6228148;22;20225;-79
2022/09/24 06:24:42;;;;;;;14.55;13.25;;;11.40;99.90;;;;;;6236187;22;20228;-79
2022/09/24 06:27:09;;;;;;;14.50;13.20;;;11.40;99.90;;;;;;6217074;22;20688;-79
2022/09/24 06:29:37;;;;;;;13.57;12.43;;;11.50;99.90;;;;;;6233076;22;20209;-79
2022/09/24 06:32:04;;;;;;;13.77;12.63;;;11.50;99.90;;;;;;6233124;22;20257;-79
2022/09/24 06:34:31;;;;;;;14.40;13.00;;;11.50;99.90;;;;;;6231581;22;20596;-79
2022/09/24 06:36:59;;;;;;;16.52;12.90;;;11.60;99.90;;;;;;6232277;22;20181;-78
2022/09/24 06:39:26;;;;;;;14.10;12.60;;;11.60;99.90;;;;;;6243141;22;20207;-75
2022/09/24 06:41:53;;;;;;;13.82;12.80;;;11.70;99.90;;;;;;6236428;22;20181;-79
2022/09/24 06:44:20;;;;;;;13.77;12.70;;;11.80;99.90;;;;;;6238556;22;20264;-77
2022/09/24 06:46:49;;;;;;;13.75;12.55;;;11.80;99.90;;;;;;6220819;22;20631;-80
2022/09/24 06:49:16;;;;;;;14.38;13.27;;;11.80;99.90;;;;;;6229054;22;20277;-80
2022/09/24 06:51:43;;;;;;;14.43;13.10;;;11.80;99.90;;;;;;6229407;23;20256;-80
2022/09/24 06:54:10;;;;;;;15.00;13.63;;;11.90;99.90;;;;;;6232872;22;20208;-80
2022/09/24 06:56:37;;;;;;;15.32;13.93;;;11.90;99.90;;;;;;6237702;22;20267;-79
2022/09/24 06:59:05;;;;;;;14.02;12.93;;;12.00;99.90;;;;;;6232566;23;20560;-79
2022/09/24 07:01:32;;;;;;;14.95;13.75;;;12.10;99.90;;;;;;6236462;22;20187;-79
2022/09/24 07:04:01;;;;;;;13.02;12.02;;;12.10;99.90;;;;;;6229123;22;20220;-80
2022/09/24 07:07:28;;;;;;;15.45;14.10;;;12.20;99.90;;;;;;6232833;22;20268;-80
2022/09/24 07:09:15;;;;;;;13.55;12.55;;;12.30;99.90;;;;;;6237285;22;20260;-79
2022/09/24 07:11:45;;;;;;;14.32;13.23;;;12.30;99.90;;;;;;6236822;22;20181;-75
2022/09/24 07:14:12;;;;;;;14.68;13.48;;;12.40;99.90;;;;;;6218327;22;20212;-78
2022/09/24 07:16:39;;;;;;;14.45;13.25;;;12.50;99.90;;;;;;6223531;22;20199;-78
2022/09/24 07:19:08;;;;;;;14.43;13.15;;;12.50;99.90;;;;;;6228895;22;20659;-77
2022/09/24 07:21:35;;;;;;;16.23;14.77;;;12.60;99.90;;;;;;6225686;23;20192;-78
2022/09/24 07:24:02;;;;;;;15.35;14.00;;;12.70;99.90;;;;;;6233882;23;20441;-79
2022/09/24 07:26:30;;;;;;;14.75;13.52;;;12.70;99.90;;;;;;6233693;22;20255;-78
2022/09/24 07:28:56;;;;;;;13.93;12.77;;;12.80;99.90;;;;;;6231494;22;20278;-78
2022/09/24 07:31:25;;;;;;;14.70;13.50;;;12.80;99.90;;;;;;6230654;23;20434;-77
2022/09/24 07:33:52;;;;;;;13.37;12.17;;;12.90;99.90;;;;;;6233290;22;20210;-78
2022/09/24 07:36:21;;;;;;;14.93;13.65;;;13.00;99.90;;;;;;6231524;22;20948;-75
2022/09/24 07:38:49;;;;;;;13.80;12.60;;;13.20;99.90;;;;;;6242324;22;20204;-78
2022/09/24 07:41:17;;;;;;;11.50;10.60;;;13.40;99.90;;;;;;6233416;22;20507;-77
2022/09/24 07:43:44;;;;;;;12.40;11.50;;;13.60;99.90;;;;;;6226632;22;20435;-79
2022/09/24 07:46:11;;;;;;;12.90;11.90;;;13.80;99.90;;;;;;6231152;22;20431;-71
2022/09/24 07:48:38;;;;;;;12.53;11.43;;;14.00;99.90;;;;;;6235911;22;20446;-72
2022/09/24 07:51:05;;;;;;;13.00;11.90;;;14.00;99.90;;;;;;6227852;22;20432;-72
2022/09/24 07:53:33;;;;;;;12.90;11.90;;;14.10;99.90;;;;;;6229495;23;20459;-72
2022/09/24 07:56:01;;;;;;;12.20;11.20;;;14.20;99.90;;;;;;6234314;22;20445;-79
2022/09/24 07:58:28;;;;;;;13.00;12.00;;;14.30;99.90;;;;;;6231298;22;20970;-79
2022/09/24 08:00:57;;;;;;;13.90;12.70;;;14.20;99.90;;;;;;6220405;22;20470;-78
2022/09/24 08:03:24;;;;;;;13.47;12.17;;;14.20;99.90;;;;;;6230688;22;20532;-78
2022/09/24 08:05:56;;;;;;;12.77;11.67;;;14.30;99.90;;;;;;6231835;22;20443;-78
2022/09/24 08:08:23;;;;;;;12.40;11.30;;;14.20;99.90;;;;;;6229235;22;20461;-78
2022/09/24 08:10:51;;;;;;;12.90;11.90;;;14.20;99.90;;;;;;6229388;22;20610;-78
2022/09/24 08:13:18;;;;;;;12.57;11.60;;;14.30;99.90;;;;;;6225285;22;20463;-80
2022/09/24 08:15:46;;;;;;;13.20;12.20;;;14.40;99.90;;;;;;6233437;22;20430;-79
2022/09/24 08:18:13;;;;;;;13.30;12.23;;;14.40;99.90;;;;;;6234619;22;20450;-78
2022/09/24 08:20:40;;;;;;;12.83;11.83;;;14.50;99.90;;;;;;6226982;22;20439;-77
2022/09/24 08:23:09;;;;;;;12.33;11.23;;;14.60;99.90;;;;;;6227470;22;20451;-79
2022/09/24 08:25:36;;;;;;;11.60;10.57;;;14.70;99.90;;;;;;6239134;22;20837;-79
2022/09/24 08:28:06;;;;;;;12.27;11.27;;;14.80;99.90;;;;;;6231640;22;20456;-80
2022/09/24 08:30:34;;;;;;;11.97;11.07;;;15.00;99.90;;;;;;6240888;22;20963;-79
2022/09/24 08:33:03;;;;;;;11.43;10.50;;;15.10;99.90;;;;;;6233560;22;20987;-79
2022/09/24 08:35:30;;;;;;;11.20;10.40;;;15.20;99.90;;;;;;6235134;22;20437;-79
2022/09/24 08:38:00;;;;;;;11.93;10.93;;;15.30;99.90;;;;;;6213608;22;20537;-80
2022/09/24 08:40:30;;;;;;;9.70;9.10;;;15.40;99.90;;;;;;6233216;22;20512;-76
2022/09/24 08:43:04;;;;;;;10.67;9.77;;;15.50;99.90;;;;;;6224934;22;20504;-77
2022/09/24 08:48:33;;;;;;;10.50;9.60;;;15.90;99.90;;;;;;6235086;23;20462;-77
2022/09/24 08:51:03;;;;;;;12.30;11.30;;;16.10;99.90;;;;;;6230227;22;20434;-75
2022/09/24 08:53:47;;;;;;;13.07;11.97;;;16.20;99.90;;;;;;6234954;22;20952;-76
2022/09/24 08:56:17;;;;;;;11.50;10.57;;;16.30;99.90;;;;;;6230988;22;20438;-76
2022/09/24 08:58:50;;;;;;;11.73;10.63;;;16.30;99.90;;;;;;6223459;22;20462;-75
2022/09/24 09:01:28;;;;;;;11.90;10.80;;;16.50;99.90;;;;;;6231043;22;20434;-75
2022/09/24 09:04:03;;;;;;;11.17;10.30;;;16.70;99.90;;;;;;6232920;22;20473;-75
2022/09/24 09:06:55;;;;;;;11.27;10.37;;;16.90;99.90;;;;;;6239507;22;20950;-75
2022/09/24 09:09:25;;;;;;;11.73;10.83;;;16.90;99.90;;;;;;6216981;22;20965;-75
2022/09/24 09:11:58;;;;;;;11.70;10.80;;;16.80;99.90;;;;;;6218248;22;20822;-75
2022/09/24 09:14:39;;;;;;;11.47;10.57;;;16.90;99.90;;;;;;6229513;22;20465;-75
2022/09/24 09:17:17;;;;;;;10.80;9.90;;;17.00;99.90;;;;;;6213046;22;20498;-75
2022/09/24 09:19:48;;;;;;;10.40;9.60;;;17.50;99.90;;;;;;6223370;22;20430;-75
2022/09/24 09:22:17;;;;;;;9.90;9.10;;;18.30;99.90;;;;;;6230535;22;20506;-74
2022/09/24 09:24:47;;;;;;;8.93;8.27;;;19.00;99.90;;;;;;6233406;22;20444;-73
2022/09/24 09:27:16;;;;;;;9.17;8.47;;;19.50;99.90;;;;;;6222438;22;21725;-74
2022/09/24 09:29:46;;;;;;;8.27;7.67;;;19.70;99.90;;;;;;6221972;22;20438;-77
2022/09/24 09:32:29;;;;;;;9.20;8.40;;;19.80;99.90;;;;;;6237265;23;20435;-76
2022/09/24 09:35:06;;;;;;;9.00;8.30;;;19.80;99.90;;;;;;6229238;23;20478;-75
2022/09/24 09:37:43;;;;;;;9.50;8.60;;;19.80;99.90;;;;;;6234664;22;20986;-70
2022/09/24 09:40:25;;;;;;;9.90;9.20;;;19.60;99.90;;;;;;6222491;22;20440;-74
2022/09/24 09:43:01;;;;;;;9.80;8.90;;;19.40;99.90;;;;;;6233322;22;20440;-76
2022/09/24 09:45:34;;;;;;;9.43;8.83;;;19.50;99.90;;;;;;6223589;22;20437;-76
2022/09/24 09:48:03;;;;;;;9.40;8.70;;;19.70;99.90;;;;;;6234555;22;20454;-76
2022/09/24 09:50:35;;;;;;;10.10;9.40;;;19.90;99.90;;;;;;6239515;22;20447;-76
2022/09/24 09:53:04;;;;;;;9.57;8.80;;;20.10;99.90;;;;;;6236263;22;20521;-75
2022/09/24 09:55:34;;;;;;;10.13;9.33;;;19.90;99.90;;;;;;6225241;23;20432;-80
2022/09/24 09:58:17;;;;;;;10.27;9.57;;;19.50;99.90;;;;;;6229383;22;20454;-78
2022/09/24 10:00:47;;;;;;;9.47;8.67;;;19.30;99.90;;;;;;6234715;22;20430;-78
2022/09/24 10:03:31;;;;;;;10.03;9.33;;;19.10;99.90;;;;;;6226819;22;20949;-80
2022/09/24 10:06:02;;;;;;;9.43;8.73;;;18.90;99.90;;;;;;6233096;22;20434;-74
2022/09/24 10:08:29;;;;;;;10.37;9.57;;;18.80;99.90;;;;;;6233148;22;20449;-77
2022/09/24 10:10:59;;;;;;;11.20;10.20;;;18.80;99.90;;;;;;6232171;22;20462;-76
2022/09/24 10:13:27;;;;;;;8.93;8.20;;;18.70;99.90;;;;;;6234493;22;20476;-76
2022/09/24 10:15:56;;;;;;;9.47;8.73;;;18.60;99.90;;;;;;6233865;22;20989;-77
2022/09/24 10:18:31;;;;;;;9.80;8.97;;;18.60;99.90;;;;;;6231533;22;20446;-77
2022/09/24 10:21:02;;;;;;;8.73;8.13;;;18.60;99.90;;;;;;6227267;22;20429;-77
2022/09/24 10:23:35;;;;;;;8.70;8.10;;;18.60;99.90;;;;;;6223945;22;20450;-77
2022/09/24 10:26:04;;;;;;;9.00;8.30;;;18.40;99.90;;;;;;6233660;22;20498;-76
2022/09/24 10:31:20;;;;;;;8.83;8.03;;;18.10;99.90;;;;;;6235626;22;20421;-76
2022/09/24 10:33:53;;;;;;;8.87;8.20;;;18.10;99.90;;;;;;6231124;22;21380;-76
2022/09/24 10:36:22;;;;;;;8.70;8.10;;;18.10;99.90;;;;;;6236486;23;20754;-76
2022/09/24 10:39:01;;;;;;;9.10;8.20;;;18.10;99.90;;;;;;6231127;22;20455;-76
2022/09/24 10:41:29;;;;;;;7.90;7.30;;;18.00;99.90;;;;;;6224432;23;20430;-75
2022/09/24 10:44:00;;;;;;;8.17;7.47;;;17.90;99.90;;;;;;6236779;22;20939;-76
2022/09/24 10:46:49;;;;;;;7.93;7.23;;;17.80;99.90;;;;;;6256694;22;20425;-76
2022/09/24 10:49:32;;;;;;;6.87;6.27;;;17.70;99.90;;;;;;6229108;22;20442;-76
2022/09/24 10:52:08;;;;;;;6.60;6.10;;;17.70;99.90;;;;;;6223120;22;20815;-75
2022/09/24 10:54:49;;;;;;;5.70;5.30;;;17.60;99.90;;;;;;6237794;22;20984;-76
2022/09/24 10:57:25;;;;;;;3.73;3.43;;;17.50;99.90;;;;;;6222040;22;20453;-76
2022/09/24 11:00:02;;;;;;;3.50;3.30;;;17.50;99.90;;;;;;6237345;22;20439;-75
2022/09/24 11:03:08;;;;;;;3.60;3.30;;;17.70;99.90;;;;;;6227428;22;20527;-75
2022/09/24 11:05:42;;;;;;;3.57;3.10;;;17.60;99.90;;;;;;6219627;22;20937;-76
2022/09/24 11:08:20;;;;;;;3.77;3.50;;;17.80;99.90;;;;;;6227812;23;20446;-76
2022/09/24 11:11:08;;;;;;;3.80;3.60;;;17.90;99.90;;;;;;6234784;23;20979;-77
2022/09/24 11:13:44;;;;;;;4.17;3.87;;;18.30;99.90;;;;;;6207466;23;20451;-77
2022/09/24 11:16:44;;;;;;;5.10;4.60;;;18.70;99.90;;;;;;6234949;23;20438;-76
2022/09/24 11:19:24;;;;;;;4.87;4.47;;;19.20;99.90;;;;;;6232042;23;20452;-76
2022/09/24 11:22:07;;;;;;;5.90;5.50;;;19.60;99.90;;;;;;6213530;23;20903;-76
2022/09/24 11:24:48;;;;;;;5.47;5.07;;;19.60;99.90;;;;;;6216518;23;20459;-76
2022/09/24 11:27:43;;;;;;;5.80;5.40;;;19.60;99.90;;;;;;6236930;22;20463;-76
2022/09/24 11:30:14;;;;;;;4.43;4.03;;;19.60;99.90;;;;;;6237200;23;21216;-76
2022/09/24 11:32:56;;;;;;;4.30;4.03;;;19.30;99.90;;;;;;6237499;23;20426;-76
2022/09/24 11:35:42;;;;;;;4.90;4.50;;;19.20;99.90;;;;;;6234457;23;20496;-76
2022/09/24 11:38:17;;;;;;;4.60;4.30;;;19.10;99.90;;;;;;6222083;23;21046;-76
2022/09/24 11:41:01;;;;;;;4.43;4.13;;;19.00;99.90;;;;;;6235357;23;20426;-76
2022/09/24 11:43:51;;;;;;;4.70;4.40;;;19.00;99.90;;;;;;6237750;22;21009;-76
2022/09/24 11:46:30;;;;;;;5.10;4.70;;;19.00;99.90;;;;;;6238070;23;20420;-76
2022/09/24 11:49:13;;;;;;;5.40;4.80;;;18.70;99.90;;;;;;6236429;23;20454;-76
2022/09/24 11:51:51;;;;;;;4.80;4.50;;;18.40;99.90;;;;;;6215408;23;20517;-76
2022/09/24 11:54:26;;;;;;;4.73;4.43;;;18.20;99.90;;;;;;6237077;22;20474;-76
2022/09/24 11:57:01;;;;;;;5.23;4.83;;;18.10;99.90;;;;;;6221671;23;20442;-76
2022/09/24 11:59:36;;;;;;;4.60;4.30;;;18.00;99.90;;;;;;6222588;23;20932;-76
2022/09/24 12:02:11;;;;;;;4.57;4.27;;;17.90;99.90;;;;;;6225408;23;20506;-76
2022/09/24 12:04:55;;;;;;;4.53;4.23;;;17.70;99.90;;;;;;6237360;23;20473;-76
2022/09/24 12:07:29;;;;;;;4.17;3.37;;;17.70;99.90;;;;;;6225025;22;20560;-75
2022/09/24 12:10:03;;;;;;;4.20;3.90;;;17.70;99.90;;;;;;6220387;23;20680;-75
2022/09/24 12:12:34;;;;;;;3.53;3.23;;;17.50;99.90;;;;;;6216222;23;20431;-74
2022/09/24 12:15:05;;;;;;;3.97;3.67;;;17.40;99.90;;;;;;6226768;23;20469;-75
2022/09/24 12:17:38;;;;;;;4.53;4.13;;;17.50;99.90;;;;;;6232851;22;20453;-70
2022/09/24 12:20:18;;;;;;;4.03;3.73;;;17.40;99.90;;;;;;6235145;23;20856;-74
2022/09/24 12:22:48;;;;;;;3.47;3.17;;;17.40;99.90;;;;;;6231420;22;20438;-74
2022/09/24 12:25:17;;;;;;;3.67;3.37;;;17.30;99.90;;;;;;6234147;23;20468;-74
2022/09/24 12:27:45;;;;;;;3.77;3.47;;;17.30;99.90;;;;;;6226776;22;21202;-73
2022/09/24 12:33:18;;;;;;;5.13;3.63;;;17.30;99.90;;;;;;6228291;22;20430;-75
2022/09/24 12:35:57;;;;;;;3.80;3.50;;;17.30;99.90;;;;;;6234418;22;20521;-76
2022/09/24 12:38:30;;;;;;;4.40;4.00;;;17.30;99.90;;;;;;6235274;22;20960;-78
2022/09/24 12:41:28;;;;;;;4.47;4.07;;;17.30;99.90;;;;;;6232705;22;20513;-79
2022/09/24 12:44:01;;;;;;;4.47;4.17;;;17.30;99.90;;;;;;6167826;23;20445;-76
2022/09/24 12:46:34;;;;;;;5.60;4.47;;;17.20;99.90;;;;;;6235430;22;20455;-74
2022/09/24 12:49:02;;;;;;;5.17;4.77;;;17.40;99.90;;;;;;6237457;23;20430;-77
2022/09/24 12:51:37;;;;;;;4.27;3.93;;;17.20;99.90;;;;;;6231345;23;20498;-77
2022/09/24 12:54:23;;;;;;;5.37;5.00;;;17.40;99.90;;;;;;6225400;22;20464;-77
2022/09/24 12:56:51;;;;;;;8.90;8.10;;;17.10;99.90;;;;;;6235594;22;20975;-78
2022/09/24 12:59:26;;;;;;;10.00;9.20;;;17.10;99.90;;;;;;6232172;23;20457;-76
2022/09/24 13:01:54;;;;;;;12.47;11.27;;;17.00;99.90;;;;;;6222154;22;20437;-79
2022/09/24 13:04:28;;;;;;;12.20;11.10;;;17.00;99.90;;;;;;6236983;22;20437;-76
2022/09/24 13:06:55;;;;;;;14.43;13.10;;;17.10;99.90;;;;;;6237194;22;20473;-77